createdAt,value
2022-09-27T00:00:31.352Z,51.27
2022-09-27T00:01:31.388Z,43.23
2022-09-27T00:02:31.389Z,45.07
2022-09-27T00:03:31.322Z,47.98
2022-09-27T00:04:32.315Z,52.69
2022-09-27T00:05:31.323Z,43.84
2022-09-27T00:06:31.301Z,46.05
2022-09-27T00:07:31.294Z,52.32
2022-09-27T00:08:31.300Z,46.22
2022-09-27T00:09:31.275Z,44.08
2022-09-27T00:10:31.267Z,43.66
2022-09-27T00:11:31.266Z,47.03
2022-09-27T00:12:31.239Z,46.61
2022-09-27T00:13:31.256Z,52.11
2022-09-27T00:14:31.233Z,47.63
2022-09-27T00:15:31.286Z,42.67
2022-09-27T00:16:31.204Z,45.17
2022-09-27T00:17:31.208Z,48.89
2022-09-27T00:18:31.200Z,42.62
2022-09-27T00:19:31.174Z,47.27
2022-09-27T00:20:31.175Z,44.64
2022-09-27T00:21:31.164Z,46.67
2022-09-27T00:22:31.150Z,43.05
2022-09-27T00:23:31.143Z,50.27
2022-09-27T00:24:31.119Z,42.81
2022-09-27T00:25:31.156Z,42.98
2022-09-27T00:26:31.105Z,53.79
2022-09-27T00:27:31.102Z,51.23
2022-09-27T00:28:31.097Z,49.22
2022-09-27T00:29:31.081Z,50.23
2022-09-27T00:30:31.072Z,45.96
2022-09-27T00:31:31.128Z,47.74
2022-09-27T00:32:31.059Z,46.48
2022-09-27T00:33:31.046Z,64.19
2022-09-27T00:34:31.027Z,47.69
2022-09-27T00:35:31.031Z,44.31
2022-09-27T00:36:31.037Z,43.25
2022-09-27T00:37:31.008Z,46.56
2022-09-27T00:38:30.993Z,65.46
2022-09-27T00:39:30.988Z,48.51
2022-09-27T00:40:31.034Z,45.49
2022-09-27T00:41:30.964Z,43.28
2022-09-27T00:42:30.950Z,48.48
2022-09-27T00:43:30.935Z,51.76
2022-09-27T00:44:30.923Z,49.08
2022-09-27T00:45:30.926Z,45.35
2022-09-27T00:46:30.920Z,49.77
2022-09-27T00:47:30.914Z,47.94
2022-09-27T00:48:30.897Z,51.65
2022-09-27T00:49:30.887Z,50.85
2022-09-27T00:50:30.866Z,53.98
2022-09-27T00:51:30.865Z,47.67
2022-09-27T00:52:30.878Z,44.39
2022-09-27T00:53:30.856Z,49.60
2022-09-27T00:54:30.936Z,49.87
2022-09-27T00:55:30.826Z,51.70
2022-09-27T00:56:30.805Z,47.93
2022-09-27T00:57:30.800Z,45.87
2022-09-27T00:58:30.794Z,48.46
2022-09-27T00:59:31.790Z,47.47
2022-09-27T01:00:30.763Z,60.34
2022-09-27T01:01:30.809Z,49.43
2022-09-27T01:02:30.807Z,46.23
2022-09-27T01:03:30.763Z,46.05
2022-09-27T01:04:30.724Z,46.90
2022-09-27T01:05:30.734Z,45.89
2022-09-27T01:06:30.749Z,53.44
2022-09-27T01:07:30.715Z,50.67
2022-09-27T01:08:30.726Z,52.21
2022-09-27T01:09:30.686Z,53.30
2022-09-27T01:10:30.682Z,51.38
2022-09-27T01:11:31.659Z,51.24
2022-09-27T01:12:30.686Z,48.81
2022-09-27T01:13:30.669Z,48.74
2022-09-27T01:14:30.661Z,45.82
2022-09-27T01:15:30.636Z,46.94
2022-09-27T01:16:30.634Z,47.12
2022-09-27T01:17:30.615Z,45.16
2022-09-27T01:18:30.633Z,51.67
2022-09-27T01:19:30.644Z,46.33
2022-09-27T01:20:30.588Z,44.12
2022-09-27T01:21:30.556Z,43.01
2022-09-27T01:22:30.569Z,50.06
2022-09-27T01:23:30.553Z,42.15
2022-09-27T01:24:30.552Z,49.29
2022-09-27T01:25:30.542Z,44.98
2022-09-27T01:26:30.531Z,50.21
2022-09-27T01:27:30.500Z,54.08
2022-09-27T01:28:30.526Z,50.16
2022-09-27T01:29:30.493Z,52.25
2022-09-27T01:30:30.486Z,60.44
2022-09-27T01:31:30.549Z,50.33
2022-09-27T01:32:30.477Z,45.15
2022-09-27T01:33:30.468Z,62.83
2022-09-27T01:34:30.432Z,43.46
2022-09-27T01:35:30.440Z,43.77
2022-09-27T01:36:30.412Z,54.73
2022-09-27T01:37:30.422Z,42.25
2022-09-27T01:38:30.404Z,47.14
2022-09-27T01:39:30.388Z,48.16
2022-09-27T01:40:30.461Z,46.18
2022-09-27T01:41:30.432Z,44.65
2022-09-27T01:42:30.393Z,44.08
2022-09-27T01:43:30.376Z,61.59
2022-09-27T01:44:30.348Z,46.39
2022-09-27T01:45:30.341Z,55.66
2022-09-27T01:46:30.388Z,48.55
2022-09-27T01:47:30.332Z,50.71
2022-09-27T01:48:30.303Z,47.36
2022-09-27T01:49:30.329Z,48.09
2022-09-27T01:50:30.307Z,43.14
2022-09-27T01:51:30.264Z,58.13
2022-09-27T01:52:30.291Z,48.09
2022-09-27T01:53:30.268Z,52.04
2022-09-27T01:54:30.235Z,47.88
2022-09-27T01:55:30.250Z,52.06
2022-09-27T01:56:30.223Z,49.59
2022-09-27T01:57:30.239Z,51.45
2022-09-27T01:58:30.227Z,63.49
2022-09-27T01:59:30.186Z,49.27
2022-09-27T02:00:30.203Z,51.06
2022-09-27T02:01:30.263Z,62.53
2022-09-27T02:02:30.188Z,44.92
2022-09-27T02:03:30.147Z,49.44
2022-09-27T02:04:30.167Z,50.70
2022-09-27T02:07:49.619Z,51.27
2022-09-27T02:08:50.738Z,56.46
2022-09-27T02:09:50.733Z,55.06
2022-09-27T02:10:50.729Z,56.82
2022-09-27T02:11:55.352Z,42.90
2022-09-27T02:12:52.709Z,45.63
2022-09-27T02:13:50.696Z,48.09
2022-09-27T02:14:50.676Z,46.23
2022-09-27T02:15:50.741Z,50.78
2022-09-27T02:16:50.659Z,45.04
2022-09-27T02:17:50.668Z,47.16
2022-09-27T02:18:50.638Z,45.96
2022-09-27T02:19:50.651Z,55.16
2022-09-27T02:20:50.627Z,55.89
2022-09-27T02:21:50.624Z,50.91
2022-09-27T02:22:50.607Z,45.08
2022-09-27T02:23:50.591Z,45.28
2022-09-27T02:24:50.596Z,43.14
2022-09-27T02:25:50.585Z,50.69
2022-09-27T02:26:50.559Z,61.66
2022-09-27T02:27:50.554Z,54.66
2022-09-27T02:28:50.542Z,50.84
2022-09-27T02:29:50.534Z,44.05
2022-09-27T02:30:50.572Z,52.88
2022-09-27T02:31:50.519Z,46.62
2022-09-27T02:32:50.509Z,51.33
2022-09-27T02:33:50.496Z,48.06
2022-09-27T02:34:50.492Z,50.47
2022-09-27T02:35:50.500Z,51.13
2022-09-27T02:36:50.469Z,53.46
2022-09-27T02:37:50.459Z,52.49
2022-09-27T02:38:50.460Z,52.08
2022-09-27T02:39:50.437Z,61.21
2022-09-27T02:40:50.501Z,52.97
2022-09-27T02:41:50.417Z,50.44
2022-09-27T02:42:50.404Z,51.37
2022-09-27T02:43:50.399Z,58.17
2022-09-27T02:44:50.386Z,49.16
2022-09-27T02:45:50.422Z,52.40
2022-09-27T02:46:50.385Z,52.42
2022-09-27T02:47:51.364Z,50.87
2022-09-27T02:48:50.346Z,47.47
2022-09-27T02:49:50.345Z,46.68
2022-09-27T02:50:50.330Z,51.26
2022-09-27T02:51:50.326Z,54.74
2022-09-27T02:52:50.309Z,57.02
2022-09-27T02:53:50.289Z,50.20
2022-09-27T02:54:50.294Z,50.94
2022-09-27T02:55:50.288Z,52.52
2022-09-27T02:56:50.278Z,53.45
2022-09-27T02:57:50.280Z,54.66
2022-09-27T02:58:50.246Z,54.73
2022-09-27T02:59:50.263Z,58.16
2022-09-27T03:00:50.230Z,51.50
2022-09-27T03:01:50.237Z,50.99
2022-09-27T03:02:50.294Z,53.95
2022-09-27T03:03:50.191Z,57.21
2022-09-27T03:04:50.211Z,63.72
2022-09-27T03:05:50.184Z,53.58
2022-09-27T03:06:50.163Z,51.64
2022-09-27T03:07:50.160Z,56.24
2022-09-27T03:08:50.158Z,52.86
2022-09-27T03:09:50.147Z,61.87
2022-09-27T03:10:50.153Z,55.96
2022-09-27T03:11:50.118Z,53.46
2022-09-27T03:12:50.118Z,53.88
2022-09-27T03:14:07.969Z,62.32
2022-09-27T03:14:52.115Z,61.84
2022-09-27T03:15:50.095Z,56.75
2022-09-27T03:16:50.282Z,64.10
2022-09-27T03:17:50.069Z,49.35
2022-09-27T03:18:50.041Z,50.51
2022-09-27T03:19:50.026Z,56.79
2022-09-27T03:20:50.048Z,60.52
2022-09-27T03:21:50.038Z,54.04
2022-09-27T03:22:50.017Z,54.25
2022-09-27T03:23:49.991Z,55.91
2022-09-27T03:24:49.985Z,55.64
2022-09-27T03:25:49.978Z,51.43
2022-09-27T03:26:49.990Z,55.07
2022-09-27T03:27:49.965Z,57.18
2022-09-27T03:28:49.966Z,50.07
2022-09-27T03:29:49.940Z,56.64
2022-09-27T03:30:50.013Z,57.21
2022-09-27T03:31:49.914Z,55.49
2022-09-27T03:32:49.924Z,54.93
2022-09-27T03:33:49.890Z,57.34
2022-09-27T03:34:50.886Z,55.61
2022-09-27T03:35:49.884Z,56.48
2022-09-27T03:36:49.872Z,60.89
2022-09-27T03:37:49.879Z,56.69
2022-09-27T03:38:49.860Z,62.60
2022-09-27T03:39:49.837Z,57.63
2022-09-27T03:40:49.863Z,56.35
2022-09-27T03:41:49.834Z,55.31
2022-09-27T03:42:50.002Z,62.67
2022-09-27T03:43:49.827Z,61.96
2022-09-27T03:44:49.790Z,59.05
2022-09-27T03:45:49.842Z,57.08
2022-09-27T03:46:49.768Z,62.87
2022-09-27T03:47:49.757Z,64.40
2022-09-27T03:48:49.760Z,56.50
2022-09-27T03:49:49.747Z,57.59
2022-09-27T03:50:49.740Z,54.46
2022-09-27T03:51:49.720Z,64.36
2022-09-27T03:52:49.712Z,53.40
2022-09-27T03:53:49.722Z,52.01
2022-09-27T03:54:49.690Z,67.70
2022-09-27T03:55:49.688Z,55.34
2022-09-27T03:56:49.676Z,56.37
2022-09-27T03:57:49.672Z,53.32
2022-09-27T03:58:49.657Z,64.16
2022-09-27T03:59:49.654Z,52.32
2022-09-27T04:00:49.664Z,55.99
2022-09-27T04:01:49.691Z,63.50
2022-09-27T04:02:49.696Z,63.85
2022-09-27T04:03:49.609Z,56.34
2022-09-27T04:04:49.593Z,59.44
2022-09-27T04:05:49.587Z,57.08
2022-09-27T04:06:49.583Z,57.72
2022-09-27T04:07:49.624Z,57.52
2022-09-27T04:08:49.561Z,55.38
2022-09-27T04:09:49.558Z,58.58
2022-09-27T04:10:49.539Z,57.51
2022-09-27T04:11:49.527Z,55.76
2022-09-27T04:12:49.545Z,59.02
2022-09-27T04:13:49.508Z,57.71
2022-09-27T04:14:49.510Z,58.49
2022-09-27T04:15:52.170Z,56.39
2022-09-27T04:16:50.512Z,59.05
2022-09-27T04:17:49.466Z,56.31
2022-09-27T04:18:49.485Z,57.64
2022-09-27T04:19:49.443Z,58.43
2022-09-27T04:20:49.429Z,56.95
2022-09-27T04:21:49.430Z,62.80
2022-09-27T04:22:49.423Z,56.67
2022-09-27T04:23:49.416Z,55.10
2022-09-27T04:24:49.398Z,55.88
2022-09-27T04:25:49.385Z,57.23
2022-09-27T04:26:49.376Z,54.68
2022-09-27T04:27:49.390Z,56.99
2022-09-27T04:28:54.075Z,59.21
2022-09-27T04:29:51.352Z,56.23
2022-09-27T04:30:49.394Z,55.81
2022-09-27T04:31:49.331Z,57.16
2022-09-27T04:32:49.333Z,60.68
2022-09-27T04:33:49.325Z,60.30
2022-09-27T04:34:49.294Z,56.98
2022-09-27T04:35:49.291Z,57.80
2022-09-27T04:36:49.279Z,64.21
2022-09-27T04:37:49.270Z,59.90
2022-09-27T04:38:49.280Z,59.73
2022-09-27T04:39:49.270Z,58.68
2022-09-27T04:40:49.324Z,56.84
2022-09-27T04:41:49.254Z,57.35
2022-09-27T04:42:49.228Z,56.71
2022-09-27T04:43:49.231Z,55.39
2022-09-27T04:44:49.218Z,56.14
2022-09-27T04:45:49.246Z,57.03
2022-09-27T04:46:49.176Z,58.82
2022-09-27T04:47:49.171Z,57.36
2022-09-27T04:48:49.160Z,56.37
2022-09-27T04:49:49.175Z,65.11
2022-09-27T04:50:49.161Z,57.40
2022-09-27T04:51:49.136Z,59.17
2022-09-27T04:52:49.113Z,65.92
2022-09-27T04:53:49.108Z,59.11
2022-09-27T04:54:49.106Z,58.29
2022-09-27T04:55:49.097Z,57.58
2022-09-27T04:56:49.092Z,57.67
2022-09-27T04:57:49.068Z,57.71
2022-09-27T04:58:49.058Z,60.60
2022-09-27T04:59:49.046Z,56.96
2022-09-27T05:00:49.039Z,63.45
2022-09-27T05:01:49.092Z,61.21
2022-09-27T05:02:49.103Z,59.18
2022-09-27T05:03:49.014Z,59.26
2022-09-27T05:04:48.997Z,60.13
2022-09-27T05:05:48.987Z,59.27
2022-09-27T05:06:50.736Z,60.60
2022-09-27T05:07:48.989Z,60.21
2022-09-27T05:08:48.957Z,60.07
2022-09-27T05:09:48.951Z,59.04
2022-09-27T05:10:48.957Z,58.38
2022-09-27T05:11:48.932Z,58.72
2022-09-27T05:12:48.914Z,59.81
2022-09-27T05:13:48.904Z,60.88
2022-09-27T05:14:48.917Z,57.51
2022-09-27T05:15:48.889Z,59.00
2022-09-27T05:16:48.962Z,61.28
2022-09-27T05:17:48.864Z,58.72
2022-09-27T05:18:48.864Z,61.43
2022-09-27T05:19:48.846Z,58.93
2022-09-27T05:20:48.842Z,60.63
2022-09-27T05:21:48.845Z,66.32
2022-09-27T05:22:48.827Z,62.11
2022-09-27T05:23:48.811Z,61.27
2022-09-27T05:24:48.802Z,59.32
2022-09-27T05:25:48.795Z,61.54
2022-09-27T05:26:48.803Z,60.66
2022-09-27T05:27:48.762Z,58.02
2022-09-27T05:28:48.751Z,58.53
2022-09-27T05:29:48.749Z,57.95
2022-09-27T05:30:48.814Z,60.62
2022-09-27T05:31:48.741Z,60.30
2022-09-27T05:32:48.737Z,66.00
2022-09-27T05:33:48.713Z,58.84
2022-09-27T05:34:48.696Z,64.47
2022-09-27T05:35:48.720Z,60.04
2022-09-27T05:36:48.681Z,59.18
2022-09-27T05:37:48.781Z,59.69
2022-09-27T05:38:48.663Z,59.54
2022-09-27T05:39:48.654Z,58.36
2022-09-27T05:40:48.664Z,59.16
2022-09-27T05:41:48.626Z,59.52
2022-09-27T05:42:48.614Z,59.14
2022-09-27T05:43:48.625Z,63.70
2022-09-27T05:44:48.599Z,59.58
2022-09-27T05:45:48.657Z,59.80
2022-09-27T05:46:48.609Z,59.28
2022-09-27T05:47:48.571Z,60.25
2022-09-27T05:48:48.565Z,59.00
2022-09-27T05:49:48.549Z,60.56
2022-09-27T05:50:48.539Z,61.92
2022-09-27T05:51:48.542Z,59.31
2022-09-27T05:52:48.519Z,57.90
2022-09-27T05:53:48.513Z,59.56
2022-09-27T05:54:48.505Z,58.67
2022-09-27T05:55:48.489Z,59.21
2022-09-27T05:56:48.481Z,59.84
2022-09-27T05:57:48.510Z,59.36
2022-09-27T05:58:48.463Z,59.99
2022-09-27T05:59:48.442Z,64.31
2022-09-27T06:00:48.437Z,61.40
2022-09-27T06:01:48.526Z,61.79
2022-09-27T06:02:49.463Z,58.14
2022-09-27T06:03:48.407Z,59.41
2022-09-27T06:04:48.400Z,63.58
2022-09-27T06:05:51.323Z,61.51
2022-09-27T06:06:49.394Z,59.61
2022-09-27T06:07:48.377Z,59.41
2022-09-27T06:08:48.391Z,63.52
2022-09-27T06:09:48.351Z,59.06
2022-09-27T06:10:48.353Z,60.92
2022-09-27T06:11:48.325Z,58.64
2022-09-27T06:12:48.319Z,57.36
2022-09-27T06:13:48.308Z,63.52
2022-09-27T06:14:48.315Z,58.78
2022-09-27T06:15:48.281Z,64.54
2022-09-27T06:16:48.379Z,59.82
2022-09-27T06:17:48.276Z,58.56
2022-09-27T06:18:48.292Z,57.67
2022-09-27T06:19:48.239Z,58.85
2022-09-27T06:20:48.234Z,62.15
2022-09-27T06:21:48.227Z,60.88
2022-09-27T06:22:48.221Z,57.41
2022-09-27T06:23:52.054Z,59.92
2022-09-27T06:24:48.195Z,62.06
2022-09-27T06:25:48.198Z,62.24
2022-09-27T06:26:48.188Z,59.66
2022-09-27T06:27:48.177Z,57.81
2022-09-27T06:28:48.152Z,59.79
2022-09-27T06:29:48.187Z,59.03
2022-09-27T06:30:48.224Z,56.54
2022-09-27T06:31:48.127Z,58.30
2022-09-27T06:32:48.117Z,61.88
2022-09-27T06:33:48.107Z,58.99
2022-09-27T06:34:48.117Z,65.50
2022-09-27T06:35:48.089Z,56.33
2022-09-27T06:36:50.740Z,58.99
2022-09-27T06:37:48.068Z,61.37
2022-09-27T06:38:48.053Z,57.86
2022-09-27T06:39:48.064Z,59.01
2022-09-27T06:40:48.067Z,56.86
2022-09-27T06:41:48.029Z,67.12
2022-09-27T06:42:48.016Z,57.48
2022-09-27T06:43:47.995Z,58.14
2022-09-27T06:44:50.153Z,59.06
2022-09-27T06:45:49.039Z,56.01
2022-09-27T06:46:48.012Z,57.15
2022-09-27T06:47:47.973Z,59.54
2022-09-27T06:48:48.036Z,58.11
2022-09-27T06:49:47.971Z,60.76
2022-09-27T06:50:47.930Z,58.72
2022-09-27T06:51:47.957Z,59.28
2022-09-27T06:52:47.917Z,64.80
2022-09-27T06:53:47.910Z,60.24
2022-09-27T06:54:47.906Z,59.68
2022-09-27T06:55:47.881Z,58.43
2022-09-27T06:56:47.922Z,61.45
2022-09-27T06:57:47.870Z,63.20
2022-09-27T06:58:47.861Z,60.58
2022-09-27T06:59:47.851Z,57.16
2022-09-27T07:00:47.937Z,58.05
2022-09-27T07:01:47.956Z,54.80
2022-09-27T07:02:48.836Z,62.30
2022-09-27T07:03:47.809Z,61.12
2022-09-27T07:04:47.795Z,54.31
2022-09-27T07:05:47.808Z,59.98
2022-09-27T07:06:47.769Z,56.61
2022-09-27T07:07:47.762Z,57.07
2022-09-27T07:08:47.762Z,58.09
2022-09-27T07:09:47.736Z,57.24
2022-09-27T07:10:47.753Z,64.33
2022-09-27T07:11:47.715Z,58.40
2022-09-27T07:12:47.715Z,61.78
2022-09-27T07:13:47.701Z,59.67
2022-09-27T07:14:47.696Z,56.41
2022-09-27T07:15:47.683Z,58.53
2022-09-27T07:16:47.734Z,58.52
2022-09-27T07:17:47.664Z,55.07
2022-09-27T07:18:47.656Z,56.35
2022-09-27T07:19:47.648Z,55.45
2022-09-27T07:20:47.638Z,59.26
2022-09-27T07:21:47.644Z,66.02
2022-09-27T07:22:47.625Z,57.14
2022-09-27T07:23:47.603Z,57.92
2022-09-27T07:24:47.608Z,61.51
2022-09-27T07:25:47.588Z,58.24
2022-09-27T07:26:47.565Z,56.65
2022-09-27T07:27:47.591Z,57.15
2022-09-27T07:28:47.564Z,56.90
2022-09-27T07:29:47.543Z,59.45
2022-09-27T07:30:47.583Z,58.57
2022-09-27T07:31:47.528Z,60.55
2022-09-27T07:32:47.533Z,59.46
2022-09-27T07:33:47.517Z,59.05
2022-09-27T07:34:47.506Z,60.06
2022-09-27T07:35:47.510Z,55.76
2022-09-27T07:36:47.478Z,56.22
2022-09-27T07:37:47.472Z,58.64
2022-09-27T07:38:47.463Z,56.88
2022-09-27T07:39:47.447Z,56.54
2022-09-27T07:40:47.540Z,57.30
2022-09-27T07:41:47.427Z,56.69
2022-09-27T07:42:47.420Z,63.47
2022-09-27T07:43:47.416Z,60.30
2022-09-27T07:44:47.398Z,58.31
2022-09-27T07:45:47.454Z,59.83
2022-09-27T07:46:47.396Z,58.31
2022-09-27T07:47:47.367Z,57.09
2022-09-27T07:48:47.381Z,57.21
2022-09-27T07:49:47.358Z,59.45
2022-09-27T07:50:47.369Z,65.50
2022-09-27T07:51:47.327Z,60.17
2022-09-27T07:52:47.323Z,57.95
2022-09-27T07:53:47.341Z,55.96
2022-09-27T07:54:47.298Z,57.85
2022-09-27T07:55:47.310Z,58.55
2022-09-27T07:56:47.286Z,58.73
2022-09-27T07:57:47.282Z,57.32
2022-09-27T07:58:47.268Z,59.19
2022-09-27T07:59:47.266Z,61.65
2022-09-27T08:00:47.292Z,58.52
2022-09-27T08:01:47.252Z,58.38
2022-09-27T08:02:47.217Z,63.52
2022-09-27T08:03:47.224Z,60.66
2022-09-27T08:04:47.207Z,60.56
2022-09-27T08:06:13.126Z,61.27
2022-09-27T08:06:47.189Z,60.06
2022-09-27T08:07:47.171Z,66.20
2022-09-27T08:08:47.177Z,59.72
2022-09-27T08:09:47.152Z,57.72
2022-09-27T08:10:47.172Z,58.72
2022-09-27T08:11:47.151Z,59.19
2022-09-27T08:12:47.120Z,61.05
2022-09-27T08:13:47.099Z,58.27
2022-09-27T08:14:48.443Z,55.36
2022-09-27T08:15:48.104Z,55.29
2022-09-27T08:16:47.112Z,56.83
2022-09-27T08:17:47.063Z,62.86
2022-09-27T08:18:47.063Z,56.83
2022-09-27T08:19:47.058Z,55.72
2022-09-27T08:20:47.032Z,60.40
2022-09-27T08:21:47.032Z,56.49
2022-09-27T08:22:47.025Z,58.57
2022-09-27T08:23:47.021Z,58.08
2022-09-27T08:24:47.010Z,57.74
2022-09-27T08:25:46.987Z,56.76
2022-09-27T08:26:46.982Z,59.36
2022-09-27T08:27:46.972Z,57.18
2022-09-27T08:28:46.981Z,56.22
2022-09-27T08:29:46.956Z,55.88
2022-09-27T08:30:46.945Z,56.16
2022-09-27T08:31:46.952Z,55.41
2022-09-27T08:32:46.910Z,61.76
2022-09-27T08:33:46.932Z,55.68
2022-09-27T08:34:46.915Z,55.58
2022-09-27T08:35:47.694Z,56.64
2022-09-27T08:36:46.878Z,56.85
2022-09-27T08:37:46.881Z,56.19
2022-09-27T08:38:46.856Z,55.99
2022-09-27T08:39:48.090Z,55.84
2022-09-27T08:40:47.883Z,59.63
2022-09-27T08:41:46.839Z,55.41
2022-09-27T08:42:46.833Z,55.42
2022-09-27T08:43:46.834Z,56.91
2022-09-27T08:44:46.793Z,56.92
2022-09-27T08:45:46.817Z,62.58
2022-09-27T08:46:46.777Z,53.68
2022-09-27T08:47:46.786Z,57.51
2022-09-27T08:48:46.763Z,58.56
2022-09-27T08:49:46.747Z,55.42
2022-09-27T08:50:46.748Z,56.04
2022-09-27T08:51:46.736Z,55.05
2022-09-27T08:52:46.716Z,58.94
2022-09-27T08:53:46.720Z,53.89
2022-09-27T08:54:46.702Z,55.91
2022-09-27T08:55:46.693Z,53.99
2022-09-27T08:56:46.715Z,51.80
2022-09-27T08:57:46.657Z,54.05
2022-09-27T08:58:46.680Z,55.53
2022-09-27T08:59:46.661Z,54.71
2022-09-27T09:00:46.733Z,55.96
2022-09-27T09:01:46.677Z,53.61
2022-09-27T09:02:46.625Z,54.37
2022-09-27T09:03:46.595Z,54.05
2022-09-27T09:04:46.606Z,53.68
2022-09-27T09:05:46.613Z,55.19
2022-09-27T09:06:46.619Z,55.26
2022-09-27T09:07:46.596Z,56.50
2022-09-27T09:08:50.861Z,54.44
2022-09-27T09:09:47.569Z,63.27
2022-09-27T09:10:46.567Z,56.54
2022-09-27T09:11:46.566Z,54.38
2022-09-27T09:12:46.523Z,54.39
2022-09-27T09:13:46.515Z,56.40
2022-09-27T09:14:46.512Z,58.69
2022-09-27T09:15:46.496Z,55.09
2022-09-27T09:16:46.520Z,55.11
2022-09-27T09:17:46.473Z,54.82
2022-09-27T09:18:46.471Z,54.65
2022-09-27T09:19:46.456Z,55.23
2022-09-27T09:20:46.445Z,56.88
2022-09-27T09:21:46.426Z,55.53
2022-09-27T09:22:46.420Z,62.84
2022-09-27T09:23:46.415Z,56.04
2022-09-27T09:24:46.396Z,55.86
2022-09-27T09:25:46.391Z,57.36
2022-09-27T09:26:46.375Z,61.27
2022-09-27T09:27:46.362Z,54.99
2022-09-27T09:28:46.368Z,56.49
2022-09-27T09:29:46.350Z,55.47
2022-09-27T09:30:46.372Z,62.15
2022-09-27T09:31:46.351Z,54.00
2022-09-27T09:32:46.321Z,57.48
2022-09-27T09:33:46.302Z,57.84
2022-09-27T09:34:46.303Z,62.34
2022-09-27T09:35:46.310Z,57.17
2022-09-27T09:36:46.279Z,58.19
2022-09-27T09:37:46.266Z,57.52
2022-09-27T09:38:46.255Z,57.45
2022-09-27T09:39:46.253Z,59.47
2022-09-27T09:40:46.295Z,60.18
2022-09-27T09:41:46.246Z,58.41
2022-09-27T09:42:47.237Z,56.85
2022-09-27T09:43:46.218Z,56.22
2022-09-27T09:44:46.199Z,59.01
2022-09-27T09:45:46.217Z,55.68
2022-09-27T09:46:46.190Z,57.25
2022-09-27T09:47:47.200Z,55.66
2022-09-27T09:48:46.153Z,57.00
2022-09-27T09:49:46.150Z,56.97
2022-09-27T09:50:46.139Z,64.61
2022-09-27T09:51:46.164Z,60.51
2022-09-27T09:52:46.136Z,58.49
2022-09-27T09:53:46.110Z,55.00
2022-09-27T09:54:46.105Z,54.23
2022-09-27T09:55:46.104Z,59.54
2022-09-27T09:56:46.098Z,55.68
2022-09-27T09:57:46.073Z,55.63
2022-09-27T09:58:46.079Z,57.47
2022-09-27T09:59:46.066Z,56.49
2022-09-27T10:00:46.068Z,57.71
2022-09-27T10:01:46.099Z,58.37
2022-09-27T10:02:46.035Z,59.88
2022-09-27T10:03:46.037Z,58.12
2022-09-27T10:04:45.998Z,57.08
2022-09-27T10:05:46.012Z,57.48
2022-09-27T10:06:45.976Z,56.71
2022-09-27T10:07:45.973Z,56.52
2022-09-27T10:08:45.978Z,57.31
2022-09-27T10:09:45.955Z,56.02
2022-09-27T10:10:45.932Z,58.21
2022-09-27T10:11:45.944Z,60.24
2022-09-27T10:12:45.928Z,60.15
2022-09-27T10:13:45.915Z,59.56
2022-09-27T10:14:45.919Z,65.74
2022-09-27T10:15:45.914Z,59.28
2022-09-27T10:16:46.010Z,56.05
2022-09-27T10:17:45.882Z,61.83
2022-09-27T10:18:49.824Z,59.50
2022-09-27T10:19:46.852Z,57.14
2022-09-27T10:20:45.842Z,56.91
2022-09-27T10:21:46.823Z,57.35
2022-09-27T10:22:45.823Z,56.97
2022-09-27T10:23:45.808Z,58.39
2022-09-27T10:24:45.829Z,60.59
2022-09-27T10:25:45.784Z,62.90
2022-09-27T10:26:45.828Z,60.49
2022-09-27T10:27:45.767Z,58.06
2022-09-27T10:28:45.780Z,57.05
2022-09-27T10:29:45.745Z,58.68
2022-09-27T10:30:45.743Z,58.24
2022-09-27T10:31:45.788Z,57.74
2022-09-27T10:32:45.717Z,58.96
2022-09-27T10:33:45.718Z,56.79
2022-09-27T10:34:45.701Z,57.87
2022-09-27T10:35:45.694Z,56.49
2022-09-27T10:36:45.685Z,58.76
2022-09-27T10:37:45.694Z,57.10
2022-09-27T10:38:45.668Z,56.58
2022-09-27T10:39:45.632Z,56.83
2022-09-27T10:40:45.813Z,57.30
2022-09-27T10:41:45.627Z,56.47
2022-09-27T10:42:45.629Z,56.05
2022-09-27T10:43:45.618Z,56.93
2022-09-27T10:44:45.593Z,58.44
2022-09-27T10:45:45.633Z,54.71
2022-09-27T10:46:45.570Z,58.79
2022-09-27T10:47:45.574Z,57.16
2022-09-27T10:48:45.574Z,56.53
2022-09-27T10:49:45.605Z,58.00
2022-09-27T10:50:50.885Z,55.83
2022-09-27T10:51:47.539Z,58.33
2022-09-27T10:52:45.509Z,60.37
2022-09-27T10:53:45.525Z,59.55
2022-09-27T10:54:45.492Z,58.04
2022-09-27T10:55:45.530Z,57.26
2022-09-27T10:56:45.471Z,52.66
2022-09-27T10:57:45.456Z,56.62
2022-09-27T10:58:45.469Z,56.01
2022-09-27T10:59:45.449Z,57.49
2022-09-27T11:00:45.468Z,55.48
2022-09-27T11:01:45.455Z,58.65
2022-09-27T11:02:45.427Z,58.76
2022-09-27T11:03:45.404Z,54.88
2022-09-27T11:04:45.438Z,56.03
2022-09-27T11:05:45.379Z,55.89
2022-09-27T11:06:45.392Z,56.64
2022-09-27T11:07:45.364Z,54.91
2022-09-27T11:08:45.377Z,60.44
2022-09-27T11:09:45.359Z,60.97
2022-09-27T11:10:45.327Z,59.35
2022-09-27T11:11:45.321Z,58.78
2022-09-27T11:12:45.311Z,57.75
2022-09-27T11:13:45.309Z,57.66
2022-09-27T11:14:45.318Z,61.52
2022-09-27T11:15:45.276Z,56.41
2022-09-27T11:16:45.324Z,57.54
2022-09-27T11:17:45.280Z,63.15
2022-09-27T11:18:45.253Z,56.71
2022-09-27T11:19:45.238Z,55.88
2022-09-27T11:20:45.214Z,62.69
2022-09-27T11:21:45.203Z,55.55
2022-09-27T11:22:45.257Z,58.54
2022-09-27T11:23:45.200Z,57.87
2022-09-27T11:24:45.180Z,57.06
2022-09-27T11:25:45.164Z,55.66
2022-09-27T11:26:45.162Z,56.95
2022-09-27T11:27:45.149Z,57.55
2022-09-27T11:28:45.162Z,57.00
2022-09-27T11:29:45.131Z,56.67
2022-09-27T11:30:45.127Z,65.00
2022-09-27T11:31:45.170Z,59.85
2022-09-27T11:32:45.094Z,55.85
2022-09-27T11:33:45.110Z,55.26
2022-09-27T11:34:45.089Z,56.40
2022-09-27T11:35:45.062Z,57.10
2022-09-27T11:36:45.067Z,59.95
2022-09-27T11:37:45.043Z,56.66
2022-09-27T11:38:53.735Z,55.33
2022-09-27T11:39:47.091Z,58.20
2022-09-27T11:40:45.082Z,57.43
2022-09-27T11:41:45.002Z,55.22
2022-09-27T11:42:44.990Z,54.84
2022-09-27T11:43:44.987Z,54.84
2022-09-27T11:44:45.002Z,54.65
2022-09-27T11:46:13.886Z,54.83
2022-09-27T11:46:46.979Z,55.76
2022-09-27T11:47:45.015Z,54.26
2022-09-27T11:48:44.947Z,55.73
2022-09-27T11:49:44.940Z,60.15
2022-09-27T11:50:44.910Z,59.25
2022-09-27T11:51:45.897Z,57.66
2022-09-27T11:52:44.893Z,56.13
2022-09-27T11:53:44.888Z,57.10
2022-09-27T11:54:44.879Z,56.76
2022-09-27T11:55:44.881Z,56.47
2022-09-27T11:56:44.932Z,55.97
2022-09-27T11:57:45.912Z,55.59
2022-09-27T11:58:44.827Z,55.37
2022-09-27T11:59:44.810Z,57.15
2022-09-27T12:00:44.826Z,59.46
2022-09-27T12:01:44.870Z,58.23
2022-09-27T12:02:44.813Z,53.76
2022-09-27T12:03:45.793Z,57.22
2022-09-27T12:04:44.769Z,55.31
2022-09-27T12:05:44.799Z,58.15
2022-09-27T12:06:44.777Z,56.65
2022-09-27T12:07:44.744Z,58.20
2022-09-27T12:08:44.742Z,57.87
2022-09-27T12:09:44.719Z,56.68
2022-09-27T12:10:44.719Z,63.24
2022-09-27T12:11:44.744Z,58.76
2022-09-27T12:12:44.745Z,59.51
2022-09-27T12:13:44.702Z,58.24
2022-09-27T12:14:44.669Z,60.08
2022-09-27T12:15:44.717Z,60.57
2022-09-27T12:16:44.684Z,63.66
2022-09-27T12:17:44.634Z,63.17
2022-09-27T12:18:48.008Z,60.10
2022-09-27T12:19:46.606Z,59.35
2022-09-27T12:20:44.608Z,59.15
2022-09-27T12:21:44.620Z,57.67
2022-09-27T12:22:58.697Z,56.91
2022-09-27T12:23:46.580Z,56.54
2022-09-27T12:24:44.582Z,63.14
2022-09-27T12:25:44.545Z,57.83
2022-09-27T12:26:44.558Z,57.24
2022-09-27T12:27:44.561Z,56.88
2022-09-27T12:28:44.519Z,63.11
2022-09-27T12:29:44.596Z,55.82
2022-09-27T12:30:44.504Z,57.01
2022-09-27T12:31:44.530Z,58.15
2022-09-27T12:32:44.505Z,57.75
2022-09-27T12:33:44.489Z,57.37
2022-09-27T12:34:44.467Z,58.40
2022-09-27T12:35:44.467Z,60.27
2022-09-27T12:36:44.520Z,62.74
2022-09-27T12:37:44.433Z,59.82
2022-09-27T12:38:44.421Z,58.59
2022-09-27T12:39:44.407Z,59.04
2022-09-27T12:40:44.453Z,57.86
2022-09-27T12:41:44.408Z,56.73
2022-09-27T12:42:44.396Z,59.08
2022-09-27T12:43:47.301Z,58.10
2022-09-27T12:44:49.015Z,58.56
2022-09-27T12:45:46.344Z,56.46
2022-09-27T12:46:44.458Z,55.88
2022-09-27T12:47:44.340Z,57.74
2022-09-27T12:48:44.338Z,56.48
2022-09-27T12:49:44.305Z,58.24
2022-09-27T12:50:44.310Z,58.12
2022-09-27T12:51:44.304Z,57.76
2022-09-27T12:52:44.278Z,58.06
2022-09-27T12:53:44.273Z,60.31
2022-09-27T12:54:44.264Z,56.22